createdAt,value
2019-04-27T00:00:40.538Z,27.25
2019-04-27T00:02:24.841Z,32.20
2019-04-27T00:04:04.076Z,38.65
2019-04-27T00:05:40.340Z,31.07
2019-04-27T00:07:16.958Z,30.02
2019-04-27T00:08:59.101Z,40.45
2019-04-27T00:10:51.098Z,29.48
2019-04-27T00:12:26.559Z,27.55
2019-04-27T00:14:00.940Z,29.57
2019-04-27T00:15:36.809Z,28.92
2019-04-27T00:17:43.530Z,24.63
2019-04-27T00:19:13.063Z,31.20
2019-04-27T00:20:48.637Z,38.45
2019-04-27T00:22:39.766Z,34.27
2019-04-27T00:24:14.465Z,33.85
2019-04-27T00:25:48.744Z,31.33
2019-04-27T00:27:26.161Z,26.25
2019-04-27T00:29:00.384Z,32.75
2019-04-27T00:30:35.628Z,33.18
2019-04-27T00:32:10.036Z,31.50
2019-04-27T00:33:44.255Z,32.88
2019-04-27T00:35:20.113Z,28.90
2019-04-27T00:36:58.679Z,27.67
2019-04-27T00:38:53.470Z,30.48
2019-04-27T00:40:33.541Z,28.85
2019-04-27T00:42:08.408Z,32.10
2019-04-27T00:43:42.778Z,31.37
2019-04-27T00:45:18.601Z,29.67
2019-04-27T00:46:53.383Z,31.97
2019-04-27T00:48:27.844Z,32.17
2019-04-27T00:50:03.611Z,32.05
2019-04-27T00:51:37.972Z,31.25
2019-04-27T00:53:13.372Z,28.47
2019-04-27T00:54:47.865Z,25.30
2019-04-27T00:56:29.748Z,32.83
2019-04-27T00:58:13.045Z,28.32
2019-04-27T01:00:07.189Z,33.35
2019-04-27T01:01:55.000Z,32.05
2019-04-27T01:03:30.904Z,34.45
2019-04-27T01:05:08.157Z,31.17
2019-04-27T01:06:43.757Z,27.15
2019-04-27T01:08:18.885Z,30.97
2019-04-27T01:09:53.743Z,29.35
2019-04-27T01:11:27.968Z,35.83
2019-04-27T01:13:03.322Z,31.95
2019-04-27T01:14:37.892Z,36.08
2019-04-27T01:16:14.674Z,30.45
2019-04-27T01:17:49.027Z,34.20
2019-04-27T01:19:23.553Z,27.67
2019-04-27T01:20:59.094Z,30.68
2019-04-27T01:22:33.496Z,31.20
2019-04-27T01:24:08.973Z,35.92
2019-04-27T01:25:44.915Z,50.80
2019-04-27T01:27:35.842Z,32.20
2019-04-27T01:29:11.699Z,34.67
2019-04-27T01:30:49.000Z,30.88
2019-04-27T01:32:23.436Z,37.10
2019-04-27T01:33:59.007Z,32.05
2019-04-27T01:35:33.536Z,31.75
2019-04-27T01:37:09.309Z,30.12
2019-04-27T01:38:43.620Z,29.12
2019-04-27T01:40:19.335Z,31.87
2019-04-27T01:41:54.029Z,31.45
2019-04-27T01:43:28.471Z,30.02
2019-04-27T01:45:06.114Z,30.17
2019-04-27T01:46:40.365Z,30.72
2019-04-27T01:48:23.027Z,29.00
2019-04-27T01:49:50.580Z,27.22
2019-04-27T01:51:24.809Z,39.70
2019-04-27T01:52:59.105Z,36.58
2019-04-27T01:54:33.337Z,31.25
2019-04-27T01:56:09.200Z,29.77
2019-04-27T01:57:43.620Z,32.75
2019-04-27T01:59:19.768Z,34.30
2019-04-27T02:00:59.455Z,34.55
2019-04-27T02:02:35.566Z,31.15
2019-04-27T02:04:14.408Z,33.00
2019-04-27T02:05:50.272Z,31.33
2019-04-27T02:07:24.928Z,29.07
2019-04-27T02:08:59.593Z,37.38
2019-04-27T02:10:34.080Z,29.10
2019-04-27T02:12:09.424Z,29.25
2019-04-27T02:13:43.928Z,29.10
2019-04-27T02:15:19.172Z,36.80
2019-04-27T02:16:53.512Z,31.12
2019-04-27T02:18:35.624Z,27.93
2019-04-27T02:20:05.098Z,27.00
2019-04-27T02:21:39.384Z,26.70
2019-04-27T02:23:13.601Z,30.57
2019-04-27T02:24:49.260Z,31.17
2019-04-27T02:26:23.680Z,33.60
2019-04-27T02:27:59.545Z,28.62
2019-04-27T02:29:39.077Z,36.13
2019-04-27T02:31:26.973Z,32.13
2019-04-27T02:33:20.264Z,35.78
2019-04-27T02:35:02.398Z,31.12
2019-04-27T02:36:38.866Z,27.45
2019-04-27T02:38:12.499Z,29.85
2019-04-27T02:39:46.845Z,31.15
2019-04-27T02:41:21.061Z,24.90
2019-04-27T02:42:55.877Z,32.67
2019-04-27T02:44:34.433Z,30.57
2019-04-27T02:46:09.550Z,39.20
2019-04-27T02:47:44.065Z,28.32
2019-04-27T02:49:20.129Z,32.50
2019-04-27T02:50:55.933Z,27.42
2019-04-27T02:52:31.804Z,34.45
2019-04-27T02:54:06.038Z,33.53
2019-04-27T02:55:40.807Z,32.17
2019-04-27T02:57:15.034Z,32.23
2019-04-27T02:58:49.899Z,32.20
2019-04-27T03:00:24.235Z,33.05
2019-04-27T03:02:00.712Z,29.92
2019-04-27T03:03:35.208Z,28.40
2019-04-27T03:05:12.722Z,34.53
2019-04-27T03:06:45.521Z,30.32
2019-04-27T03:08:20.177Z,31.62
2019-04-27T03:09:54.608Z,27.80
2019-04-27T03:11:30.671Z,30.90
2019-04-27T03:13:12.412Z,28.32
2019-04-27T03:14:50.600Z,36.95
2019-04-27T03:16:32.359Z,34.40
2019-04-27T03:18:09.874Z,30.90
2019-04-27T03:20:00.832Z,25.45
2019-04-27T03:21:42.658Z,29.20
2019-04-27T03:23:17.041Z,31.65
2019-04-27T03:25:09.897Z,34.90
2019-04-27T03:26:50.110Z,35.80
2019-04-27T03:28:23.788Z,35.15
2019-04-27T03:29:59.715Z,33.63
2019-04-27T03:31:34.061Z,30.25
2019-04-27T03:33:11.938Z,27.87
2019-04-27T03:34:44.249Z,33.98
2019-04-27T03:36:21.553Z,32.42
2019-04-27T03:37:54.518Z,28.87
2019-04-27T03:39:29.967Z,28.80
2019-04-27T03:41:04.753Z,33.45
2019-04-27T03:42:40.710Z,36.17
2019-04-27T03:44:15.141Z,32.10
2019-04-27T03:45:51.761Z,50.70
2019-04-27T03:47:25.279Z,38.08
2019-04-27T03:49:00.136Z,41.28
2019-04-27T03:50:39.892Z,34.67
2019-04-27T03:52:29.930Z,37.50
2019-04-27T03:54:19.387Z,32.93
2019-04-27T03:56:05.123Z,35.78
2019-04-27T03:57:47.013Z,35.40
2019-04-27T03:59:22.885Z,32.38
2019-04-27T04:00:59.884Z,26.90
2019-04-27T04:02:33.163Z,27.75
2019-04-27T04:04:10.091Z,31.60
2019-04-27T04:05:43.221Z,30.02
2019-04-27T04:07:19.468Z,23.20
2019-04-27T04:08:55.229Z,27.87
2019-04-27T04:10:31.158Z,34.85
2019-04-27T04:12:09.443Z,40.25
2019-04-27T04:13:44.500Z,26.48
2019-04-27T04:15:36.508Z,27.13
2019-04-27T04:17:12.739Z,30.82
2019-04-27T04:19:00.381Z,27.05
2019-04-27T04:20:33.817Z,30.48
2019-04-27T04:22:10.237Z,28.17
2019-04-27T04:23:43.921Z,25.20
2019-04-27T04:25:20.014Z,28.73
2019-04-27T04:26:54.010Z,28.75
2019-04-27T04:28:29.626Z,22.45
2019-04-27T04:30:09.800Z,25.57
2019-04-27T04:31:44.603Z,26.65
2019-04-27T04:33:20.603Z,24.20
2019-04-27T04:34:57.620Z,29.55
2019-04-27T04:36:31.854Z,23.77
2019-04-27T04:38:06.128Z,23.57
2019-04-27T04:39:40.726Z,22.48
2019-04-27T04:41:20.081Z,22.90
2019-04-27T04:42:56.245Z,20.57
2019-04-27T04:44:36.432Z,24.95
2019-04-27T04:46:29.808Z,24.95
2019-04-27T04:48:05.984Z,22.67
2019-04-27T04:49:40.209Z,30.17
2019-04-27T04:51:14.441Z,26.35
2019-04-27T04:52:49.922Z,24.55
2019-04-27T04:54:24.875Z,20.72
2019-04-27T04:56:00.404Z,26.50
2019-04-27T04:57:34.858Z,24.72
2019-04-27T04:59:10.062Z,32.40
2019-04-27T05:00:44.456Z,25.65
2019-04-27T05:02:19.160Z,25.48
2019-04-27T05:03:53.443Z,26.48
2019-04-27T05:05:29.132Z,24.65
2019-04-27T05:07:03.749Z,27.40
2019-04-27T05:08:39.340Z,25.32
2019-04-27T05:10:13.682Z,25.90
2019-04-27T05:11:48.683Z,26.73
2019-04-27T05:13:23.033Z,19.17
2019-04-27T05:14:58.944Z,25.32
2019-04-27T05:16:33.268Z,24.12
2019-04-27T05:18:09.131Z,25.08
2019-04-27T05:19:44.260Z,27.00
2019-04-27T05:21:20.124Z,21.07
2019-04-27T05:22:54.434Z,21.23
2019-04-27T05:24:29.255Z,24.90
2019-04-27T05:26:03.695Z,24.05
2019-04-27T05:27:38.953Z,22.67
2019-04-27T05:29:13.840Z,27.37
2019-04-27T05:30:48.934Z,23.57
2019-04-27T05:32:23.396Z,22.90
2019-04-27T05:34:00.464Z,19.10
2019-04-27T05:35:34.738Z,20.05
2019-04-27T05:37:09.093Z,17.57
2019-04-27T05:38:45.923Z,19.02
2019-04-27T05:40:19.229Z,21.68
2019-04-27T05:41:53.460Z,18.87
2019-04-27T05:43:30.156Z,19.23
2019-04-27T05:45:22.773Z,22.00
2019-04-27T05:47:13.290Z,24.27
2019-04-27T05:48:48.857Z,22.25
2019-04-27T05:50:35.273Z,21.35
2019-04-27T05:51:59.527Z,21.50
2019-04-27T05:53:33.949Z,19.73
2019-04-27T05:55:08.702Z,29.27
2019-04-27T05:56:44.504Z,20.35
2019-04-27T05:58:19.586Z,21.25
2019-04-27T05:59:54.196Z,21.25
2019-04-27T06:01:29.664Z,22.82
2019-04-27T06:03:04.160Z,23.10
2019-04-27T06:04:39.040Z,23.67
2019-04-27T06:06:14.268Z,24.85
2019-04-27T06:07:48.872Z,23.18
2019-04-27T06:09:23.264Z,19.52
2019-04-27T06:10:59.073Z,21.95
2019-04-27T06:12:33.379Z,17.67
2019-04-27T06:14:09.512Z,18.73
2019-04-27T06:15:43.530Z,21.12
2019-04-27T06:17:19.438Z,18.45
2019-04-27T06:18:53.940Z,21.20
2019-04-27T06:20:29.373Z,22.32
2019-04-27T06:22:03.602Z,27.40
2019-04-27T06:23:39.086Z,23.12
2019-04-27T06:25:13.752Z,34.05
2019-04-27T06:26:49.654Z,32.88
2019-04-27T06:28:23.905Z,34.18
2019-04-27T06:29:59.598Z,34.90
2019-04-27T06:31:33.824Z,25.12
2019-04-27T06:33:09.364Z,34.08
2019-04-27T06:34:44.427Z,31.73
2019-04-27T06:36:19.876Z,31.27
2019-04-27T06:37:54.465Z,32.45
2019-04-27T06:39:29.761Z,24.57
2019-04-27T06:41:04.287Z,33.88
2019-04-27T06:42:40.159Z,24.27
2019-04-27T06:44:14.393Z,23.65
2019-04-27T06:45:48.905Z,26.80
2019-04-27T06:47:23.184Z,26.07
2019-04-27T06:48:59.144Z,25.82
2019-04-27T06:50:33.400Z,24.20
2019-04-27T06:52:08.662Z,23.15
2019-04-27T06:53:43.018Z,22.82
2019-04-27T06:55:18.760Z,20.32
2019-04-27T06:56:53.180Z,25.60
2019-04-27T06:58:29.120Z,25.65
2019-04-27T07:00:03.687Z,24.95
2019-04-27T07:01:39.035Z,34.38
2019-04-27T07:03:13.443Z,33.65
2019-04-27T07:04:49.025Z,38.92
2019-04-27T07:06:23.616Z,36.63
2019-04-27T07:07:59.115Z,30.30
2019-04-27T07:09:33.453Z,29.23
2019-04-27T07:11:11.028Z,26.02
2019-04-27T07:12:43.597Z,33.60
2019-04-27T07:14:19.528Z,23.67
2019-04-27T07:15:55.336Z,28.70
2019-04-27T07:17:29.571Z,29.12
2019-04-27T07:19:04.453Z,24.60
2019-04-27T07:20:38.907Z,30.55
2019-04-27T07:22:13.241Z,25.23
2019-04-27T07:23:59.681Z,25.00
2019-04-27T07:25:34.096Z,28.23
2019-04-27T07:27:09.364Z,29.32
2019-04-27T07:28:43.657Z,22.80
2019-04-27T07:30:19.014Z,30.65
2019-04-27T07:31:53.457Z,23.15
2019-04-27T07:33:29.524Z,23.83
2019-04-27T07:35:03.996Z,25.97
2019-04-27T07:36:39.369Z,19.65
2019-04-27T07:38:13.817Z,21.87
2019-04-27T07:39:49.188Z,26.25
2019-04-27T07:41:23.595Z,22.80
2019-04-27T07:43:02.180Z,29.18
2019-04-27T07:44:39.068Z,27.98
2019-04-27T07:46:14.106Z,23.62
2019-04-27T07:47:49.964Z,21.30
2019-04-27T07:49:24.185Z,21.50
2019-04-27T07:50:59.075Z,20.90
2019-04-27T07:52:33.652Z,30.27
2019-04-27T07:54:08.982Z,17.02
2019-04-27T07:55:43.287Z,22.22
2019-04-27T07:57:19.433Z,16.00
2019-04-27T07:58:53.412Z,22.20
2019-04-27T08:00:28.957Z,22.42
2019-04-27T08:02:03.628Z,25.40
2019-04-27T08:03:39.013Z,20.75
2019-04-27T08:05:13.564Z,26.35
2019-04-27T08:06:49.532Z,23.50
2019-04-27T08:08:23.649Z,26.75
2019-04-27T08:10:01.132Z,33.42
2019-04-27T08:11:33.782Z,33.60
2019-04-27T08:13:09.580Z,35.70
2019-04-27T08:14:43.925Z,36.05
2019-04-27T08:16:18.303Z,31.60
2019-04-27T08:17:59.197Z,27.65
2019-04-27T08:19:33.805Z,21.52
2019-04-27T08:21:08.962Z,28.15
2019-04-27T08:22:43.205Z,26.55
2019-04-27T08:24:20.037Z,25.82
2019-04-27T08:25:54.329Z,35.38
2019-04-27T08:27:36.217Z,26.60
2019-04-27T08:29:32.825Z,25.62
2019-04-27T08:31:18.738Z,31.20
2019-04-27T08:32:55.010Z,27.02
2019-04-27T08:34:36.848Z,21.77
2019-04-27T08:36:11.180Z,29.20
2019-04-27T08:37:45.389Z,25.15
2019-04-27T08:39:20.230Z,25.40
2019-04-27T08:40:54.453Z,22.20
2019-04-27T08:42:29.409Z,23.83
2019-04-27T08:44:03.849Z,24.60
2019-04-27T08:45:39.162Z,25.72
2019-04-27T08:47:14.717Z,27.22
2019-04-27T08:48:49.118Z,30.95
2019-04-27T08:50:23.610Z,19.45
2019-04-27T08:52:01.340Z,21.07
2019-04-27T08:53:33.740Z,23.95
2019-04-27T08:55:09.539Z,23.05
2019-04-27T08:56:44.112Z,20.10
2019-04-27T08:58:19.651Z,22.05
2019-04-27T08:59:54.220Z,25.08
2019-04-27T09:01:29.945Z,23.22
2019-04-27T09:03:04.407Z,24.70
2019-04-27T09:04:39.507Z,17.87
2019-04-27T09:06:13.955Z,23.00
2019-04-27T09:08:06.035Z,20.75
2019-04-27T09:09:41.883Z,26.55
2019-04-27T09:11:20.719Z,24.35
2019-04-27T09:13:14.860Z,24.87
2019-04-27T09:15:02.949Z,24.45
2019-04-27T09:16:38.986Z,22.32
2019-04-27T09:18:14.861Z,23.60
2019-04-27T09:19:51.265Z,20.43
2019-04-27T09:21:25.553Z,25.88
2019-04-27T09:22:59.779Z,20.65
2019-04-27T09:24:33.992Z,21.42
2019-04-27T09:26:10.925Z,19.77
2019-04-27T09:27:44.614Z,20.32
2019-04-27T09:29:19.789Z,23.18
2019-04-27T09:30:54.917Z,20.15
2019-04-27T09:32:29.213Z,24.40
2019-04-27T09:34:03.438Z,20.55
2019-04-27T09:35:37.696Z,22.90
2019-04-27T09:37:11.922Z,21.82
2019-04-27T09:38:46.504Z,22.17
2019-04-27T09:40:20.907Z,22.45
2019-04-27T09:41:57.157Z,27.62
2019-04-27T09:43:31.705Z,21.10
2019-04-27T09:45:07.376Z,18.40
2019-04-27T09:46:41.596Z,23.98
2019-04-27T09:48:17.606Z,16.20
2019-04-27T09:49:52.030Z,21.68
2019-04-27T09:51:26.244Z,20.17
2019-04-27T09:53:00.452Z,18.02
2019-04-27T09:54:36.209Z,30.85
2019-04-27T09:56:10.576Z,18.02
2019-04-27T09:57:46.529Z,20.95
2019-04-27T09:59:20.881Z,23.18
2019-04-27T10:00:56.675Z,23.10
2019-04-27T10:02:31.593Z,25.15
2019-04-27T10:04:05.803Z,19.27
2019-04-27T10:05:40.004Z,17.52
2019-04-27T10:07:14.222Z,21.27
2019-04-27T10:08:48.483Z,23.35
2019-04-27T10:10:22.764Z,24.12
2019-04-27T10:11:56.994Z,25.62
2019-04-27T10:13:31.216Z,23.10
2019-04-27T10:15:06.857Z,19.05
2019-04-27T10:16:41.072Z,24.25
2019-04-27T10:18:16.337Z,25.88
2019-04-27T10:19:50.908Z,20.88
2019-04-27T10:21:26.429Z,19.85
2019-04-27T10:23:00.808Z,26.48
2019-04-27T10:24:35.832Z,20.65
2019-04-27T10:26:10.098Z,18.42
2019-04-27T10:27:45.953Z,16.35
2019-04-27T10:29:20.215Z,29.20
2019-04-27T10:30:55.736Z,29.00
2019-04-27T10:32:30.057Z,31.85
2019-04-27T10:34:05.873Z,20.52
2019-04-27T10:35:40.274Z,23.27
2019-04-27T10:37:16.103Z,24.47
2019-04-27T10:38:50.368Z,25.17
2019-04-27T10:40:26.247Z,23.60
2019-04-27T10:42:00.452Z,26.65
2019-04-27T10:43:34.712Z,19.75
2019-04-27T10:45:10.771Z,25.10
2019-04-27T10:46:44.984Z,35.03
2019-04-27T10:48:19.846Z,29.77
2019-04-27T10:49:54.132Z,22.40
2019-04-27T10:51:28.360Z,29.00
2019-04-27T10:53:02.665Z,18.92
2019-04-27T10:54:36.912Z,26.45
2019-04-27T10:56:11.196Z,29.30
2019-04-27T10:57:45.486Z,27.70
2019-04-27T10:59:20.703Z,20.17
2019-04-27T11:00:59.740Z,35.25
2019-04-27T11:02:33.993Z,34.27
2019-04-27T11:04:18.837Z,20.12
2019-04-27T11:05:54.696Z,28.52
2019-04-27T11:07:30.598Z,24.75
2019-04-27T11:09:07.480Z,22.65
2019-04-27T11:10:41.691Z,28.15
2019-04-27T11:12:15.967Z,27.42
2019-04-27T11:13:50.164Z,22.10
2019-04-27T11:15:26.410Z,22.30
2019-04-27T11:17:00.678Z,16.30
2019-04-27T11:18:36.055Z,23.65
2019-04-27T11:20:11.044Z,16.82
2019-04-27T11:21:45.612Z,19.98
2019-04-27T11:23:19.829Z,20.88
2019-04-27T11:24:56.029Z,23.35
2019-04-27T11:26:30.002Z,21.35
2019-04-27T11:28:05.702Z,16.50
2019-04-27T11:29:40.278Z,18.73
2019-04-27T11:31:16.985Z,25.27
2019-04-27T11:32:54.602Z,21.95
2019-04-27T11:34:32.924Z,20.20
2019-04-27T11:36:20.878Z,27.90
2019-04-27T11:37:56.725Z,26.12
2019-04-27T11:39:30.936Z,20.62
2019-04-27T11:41:05.152Z,23.52
2019-04-27T11:42:39.416Z,28.25
2019-04-27T11:44:15.273Z,27.35
2019-04-27T11:45:50.764Z,22.75
2019-04-27T11:47:24.988Z,20.75
2019-04-27T11:48:59.700Z,22.55
2019-04-27T11:50:35.645Z,17.70
2019-04-27T11:52:09.773Z,18.77
2019-04-27T11:53:43.980Z,16.80
2019-04-27T11:55:19.032Z,24.40
2019-04-27T11:56:53.275Z,20.05
2019-04-27T11:58:27.480Z,22.58
2019-04-27T12:00:02.117Z,18.12
2019-04-27T12:01:37.228Z,17.32
2019-04-27T12:03:11.524Z,18.20
2019-04-27T12:04:46.657Z,17.65
2019-04-27T12:06:21.063Z,13.93
2019-04-27T12:07:56.059Z,18.52
2019-04-27T12:09:30.566Z,20.80
2019-04-27T12:11:05.893Z,27.48
2019-04-27T12:12:40.490Z,19.73
2019-04-27T12:14:14.709Z,20.00
2019-04-27T12:15:48.918Z,21.70
2019-04-27T12:17:23.136Z,24.45
2019-04-27T12:18:59.061Z,21.35
2019-04-27T12:20:33.275Z,21.65
2019-04-27T12:22:07.480Z,14.70
2019-04-27T12:23:41.689Z,17.62
2019-04-27T12:25:16.347Z,21.45
2019-04-27T12:26:55.808Z,24.43
2019-04-27T12:28:41.827Z,21.07
2019-04-27T12:30:21.135Z,18.10
2019-04-27T12:46:08.256Z,21.02
2019-04-27T12:47:43.144Z,19.65
2019-04-27T12:49:17.698Z,22.75
2019-04-27T12:50:51.913Z,22.65
2019-04-27T12:52:26.233Z,19.77
2019-04-27T12:54:05.976Z,23.07
2019-04-27T12:55:42.120Z,21.17
2019-04-27T12:57:20.907Z,23.35
2019-04-27T12:58:59.824Z,18.85
2019-04-27T13:00:41.426Z,16.85
2019-04-27T13:02:15.629Z,20.80
2019-04-27T13:03:50.493Z,20.05
2019-04-27T13:05:25.814Z,24.52
2019-04-27T13:07:00.368Z,19.40
2019-04-27T13:08:35.739Z,17.82
2019-04-27T13:10:10.569Z,22.13
2019-04-27T13:11:45.927Z,18.40
2019-04-27T13:13:20.678Z,20.95
2019-04-27T13:14:55.164Z,19.60
2019-04-27T13:16:30.544Z,21.57
2019-04-27T13:18:05.573Z,22.75
2019-04-27T13:19:40.137Z,17.62
2019-04-27T13:21:15.688Z,18.92
2019-04-27T13:22:50.314Z,24.10
2019-04-27T13:24:26.106Z,26.55
2019-04-27T13:26:00.421Z,17.48
2019-04-27T13:27:34.629Z,20.80
2019-04-27T13:29:08.855Z,17.90
2019-04-27T13:30:43.114Z,21.80
2019-04-27T13:32:17.333Z,24.37
2019-04-27T13:33:51.549Z,20.95
2019-04-27T13:35:25.935Z,18.17
2019-04-27T13:37:01.965Z,21.40
2019-04-27T13:38:36.587Z,20.45
2019-04-27T13:40:17.045Z,18.90
2019-04-27T13:41:51.538Z,16.45
2019-04-27T13:43:33.314Z,22.05
2019-04-27T13:45:09.172Z,20.12
2019-04-27T13:46:57.271Z,21.12
2019-04-27T13:48:51.321Z,16.02
2019-04-27T13:50:27.107Z,18.82
2019-04-27T13:52:02.980Z,18.57
2019-04-27T13:53:37.225Z,17.87
2019-04-27T13:55:11.735Z,15.23
2019-04-27T13:56:47.636Z,23.57
2019-04-27T13:58:21.880Z,16.57
2019-04-27T13:59:56.220Z,15.40
2019-04-27T14:01:30.515Z,20.15
2019-04-27T14:03:05.341Z,17.70
2019-04-27T14:04:39.596Z,27.15
2019-04-27T14:06:13.917Z,21.48
2019-04-27T14:07:49.435Z,18.57
2019-04-27T14:09:24.007Z,16.05
2019-04-27T14:10:58.841Z,17.60
2019-04-27T14:12:34.140Z,17.02
2019-04-27T14:14:08.402Z,18.23
2019-04-27T14:15:42.628Z,17.82
2019-04-27T14:17:19.301Z,20.00
2019-04-27T14:18:53.762Z,23.90
2019-04-27T14:20:28.726Z,19.52
2019-04-27T14:22:03.010Z,18.37
2019-04-27T14:23:38.553Z,11.93
2019-04-27T14:25:13.391Z,21.50
2019-04-27T14:26:48.578Z,19.65
2019-04-27T14:28:23.031Z,21.97
2019-04-27T14:29:59.567Z,16.82
2019-04-27T14:31:34.100Z,21.00
2019-04-27T14:33:08.531Z,15.03
2019-04-27T14:34:43.014Z,21.90
2019-04-27T14:36:18.243Z,19.25
2019-04-27T14:37:52.556Z,16.17
2019-04-27T14:39:28.526Z,20.70
2019-04-27T14:41:02.753Z,17.07
2019-04-27T14:42:36.954Z,15.20
2019-04-27T14:44:11.177Z,19.85
2019-04-27T14:45:48.484Z,20.55
2019-04-27T14:47:22.840Z,19.15
2019-04-27T14:48:57.048Z,17.45
2019-04-27T14:50:31.628Z,21.02
2019-04-27T14:52:06.248Z,25.32
2019-04-27T14:53:40.533Z,19.60
2019-04-27T14:55:14.752Z,19.42
2019-04-27T14:56:49.021Z,20.52
2019-04-27T14:58:23.233Z,31.65
2019-04-27T14:59:58.374Z,21.00
2019-04-27T15:01:33.381Z,24.87
2019-04-27T15:03:07.712Z,21.87
2019-04-27T15:04:42.414Z,25.25
2019-04-27T15:06:16.952Z,18.77
2019-04-27T15:07:51.776Z,20.17
2019-04-27T15:09:26.136Z,22.75
2019-04-27T15:11:00.353Z,20.37
2019-04-27T15:12:34.580Z,21.77
2019-04-27T15:14:09.192Z,18.87
2019-04-27T15:15:43.774Z,19.30
2019-04-27T15:17:23.283Z,18.20
2019-04-27T15:18:55.508Z,21.02
2019-04-27T15:20:41.638Z,17.10
2019-04-27T15:22:19.619Z,24.85
2019-04-27T15:23:53.416Z,25.10
2019-04-27T15:25:27.637Z,44.90
2019-04-27T15:27:02.291Z,37.08
2019-04-27T15:28:38.356Z,30.92
2019-04-27T15:30:17.988Z,25.10
2019-04-27T15:31:55.858Z,31.23
2019-04-27T15:33:51.432Z,23.32
2019-04-27T15:35:35.543Z,27.62
2019-04-27T15:37:12.181Z,23.02
2019-04-27T15:38:51.355Z,28.32
2019-04-27T15:40:28.940Z,28.35
2019-04-27T15:42:08.020Z,35.55
2019-04-27T15:43:42.464Z,30.62
2019-04-27T15:45:22.859Z,32.83
2019-04-27T15:46:52.692Z,40.55
2019-04-27T15:48:30.489Z,40.60
2019-04-27T15:50:02.881Z,33.18
2019-04-27T15:51:39.001Z,42.80
2019-04-27T15:53:13.216Z,29.07
2019-04-27T15:54:48.137Z,36.85
2019-04-27T15:56:22.548Z,32.42
2019-04-27T15:57:56.870Z,31.20
2019-04-27T15:59:37.729Z,24.10
2019-04-27T16:01:09.878Z,33.38
2019-04-27T16:02:44.544Z,22.32
2019-04-27T16:04:19.307Z,25.32
2019-04-27T16:05:53.535Z,25.60
2019-04-27T16:07:30.385Z,35.00
2019-04-27T16:09:07.695Z,31.82
2019-04-27T16:10:42.180Z,28.55
2019-04-27T16:12:18.028Z,28.38
2019-04-27T16:13:52.316Z,30.12
2019-04-27T16:15:27.913Z,29.70
2019-04-27T16:17:03.031Z,23.22
2019-04-27T16:18:38.821Z,26.97
2019-04-27T16:20:22.501Z,24.70
2019-04-27T16:21:54.094Z,22.87
2019-04-27T16:23:28.215Z,32.85
2019-04-27T16:25:03.875Z,29.18
2019-04-27T16:26:39.062Z,29.02
2019-04-27T16:28:14.372Z,30.40
2019-04-27T16:29:49.214Z,26.12
2019-04-27T16:31:24.809Z,33.70
2019-04-27T16:32:59.498Z,37.45
2019-04-27T16:34:37.846Z,26.07
2019-04-27T16:36:09.762Z,36.58
2019-04-27T16:37:52.101Z,34.48
2019-04-27T16:39:24.756Z,32.60
2019-04-27T16:41:03.203Z,24.75
2019-04-27T16:42:35.424Z,27.22
2019-04-27T16:44:10.895Z,29.92
2019-04-27T16:45:45.667Z,32.05
2019-04-27T16:47:24.318Z,31.12
2019-04-27T16:48:55.817Z,31.57
2019-04-27T16:50:30.044Z,26.57
2019-04-27T16:52:04.429Z,37.35
2019-04-27T16:53:41.121Z,31.10
2019-04-27T16:55:17.363Z,31.00
2019-04-27T16:56:56.648Z,36.60
2019-04-27T16:58:26.365Z,28.23
2019-04-27T17:00:01.138Z,30.45
2019-04-27T17:01:40.043Z,36.55
2019-04-27T17:03:11.696Z,34.78
2019-04-27T17:04:52.810Z,53.73
2019-04-27T17:06:21.856Z,45.55
2019-04-27T17:07:56.093Z,41.90
2019-04-27T17:09:30.360Z,49.05
2019-04-27T17:11:11.402Z,35.90
2019-04-27T17:12:45.633Z,40.78
2019-04-27T17:14:20.569Z,38.25
2019-04-27T17:16:08.627Z,36.85
2019-04-27T17:17:50.860Z,43.13
2019-04-27T17:19:25.244Z,41.13
2019-04-27T17:21:05.548Z,35.85
2019-04-27T17:22:38.460Z,39.55
2019-04-27T17:24:14.700Z,46.42
2019-04-27T17:25:52.975Z,38.80
2019-04-27T17:27:31.217Z,46.02
2019-04-27T17:29:15.976Z,35.17
2019-04-27T17:30:46.112Z,33.10
2019-04-27T17:32:30.296Z,36.28
2019-04-27T17:34:03.691Z,32.78
2019-04-27T17:35:41.759Z,26.35
2019-04-27T17:37:13.916Z,38.10
2019-04-27T17:38:50.996Z,41.60
2019-04-27T17:40:24.145Z,29.75
2019-04-27T17:41:58.781Z,39.05
2019-04-27T17:43:33.265Z,36.48
2019-04-27T17:45:09.006Z,33.83
2019-04-27T17:46:49.427Z,33.67
2019-04-27T17:48:19.309Z,27.00
2019-04-27T17:49:53.516Z,35.08
2019-04-27T17:51:28.534Z,28.87
2019-04-27T17:53:04.904Z,27.13
2019-04-27T17:54:40.837Z,33.88
2019-04-27T17:56:15.073Z,36.33
2019-04-27T17:57:49.992Z,25.57
2019-04-27T17:59:24.344Z,26.95
2019-04-27T18:00:59.910Z,24.67
2019-04-27T18:02:38.983Z,21.93
2019-04-27T18:04:10.695Z,25.72
2019-04-27T18:05:50.563Z,19.52
2019-04-27T18:07:21.148Z,26.85
2019-04-27T18:09:00.868Z,22.27
2019-04-27T18:10:31.270Z,19.20
2019-04-27T18:12:08.099Z,27.32
2019-04-27T18:13:42.150Z,21.77
2019-04-27T18:15:16.642Z,19.17
2019-04-27T18:16:52.495Z,26.40
2019-04-27T18:18:38.011Z,20.62
2019-04-27T18:20:18.383Z,28.75
2019-04-27T18:22:00.904Z,20.97
2019-04-27T18:23:36.963Z,18.85
2019-04-27T18:25:11.440Z,14.30
2019-04-27T18:26:51.615Z,14.10
2019-04-27T18:28:24.874Z,17.98
2019-04-27T18:30:03.335Z,16.62
2019-04-27T18:31:38.285Z,21.12
2019-04-27T18:33:14.254Z,18.52
2019-04-27T18:34:49.466Z,13.20
2019-04-27T18:36:24.364Z,10.28
2019-04-27T18:38:01.709Z,11.88
2019-04-27T18:39:34.416Z,11.12
2019-04-27T18:41:11.642Z,10.58
2019-04-27T18:42:44.625Z,13.78
2019-04-27T18:44:19.238Z,12.18
2019-04-27T18:45:53.742Z,17.80
2019-04-27T18:47:31.292Z,19.42
2019-04-27T18:49:05.523Z,20.45
2019-04-27T18:50:43.621Z,23.30
2019-04-27T18:52:35.557Z,15.80
2019-04-27T18:54:11.465Z,17.67
2019-04-27T18:55:45.734Z,18.37
2019-04-27T18:57:20.008Z,16.45
2019-04-27T18:58:54.225Z,13.50
2019-04-27T19:00:29.510Z,15.78
2019-04-27T19:02:04.072Z,17.17
2019-04-27T19:03:39.142Z,17.27
2019-04-27T19:05:13.414Z,18.65
2019-04-27T19:06:47.633Z,12.30
2019-04-27T19:08:21.957Z,15.75
2019-04-27T19:09:56.164Z,15.30
2019-04-27T19:11:32.428Z,14.60
2019-04-27T19:13:08.557Z,16.12
2019-04-27T19:14:42.541Z,11.45
2019-04-27T19:16:18.720Z,14.50
2019-04-27T19:17:53.174Z,12.63
2019-04-27T19:19:28.014Z,12.25
2019-04-27T19:21:02.492Z,14.50
2019-04-27T19:22:38.466Z,12.33
2019-04-27T19:24:12.601Z,13.68
2019-04-27T19:25:48.449Z,13.60
2019-04-27T19:27:42.597Z,13.20
2019-04-27T19:29:18.935Z,11.93
2019-04-27T19:31:10.101Z,13.95
2019-04-27T19:32:44.380Z,11.65
2019-04-27T19:34:18.643Z,6.80
2019-04-27T19:35:52.860Z,11.00
2019-04-27T19:37:28.626Z,12.07
2019-04-27T19:39:04.956Z,6.60
2019-04-27T19:40:39.200Z,9.18
2019-04-27T19:42:13.412Z,8.95
2019-04-27T19:43:48.809Z,9.35
2019-04-27T19:45:23.137Z,8.08
2019-04-27T19:46:59.958Z,7.08
2019-04-27T19:48:33.845Z,8.98
2019-04-27T19:50:10.161Z,9.13
2019-04-27T19:51:44.024Z,9.53
2019-04-27T19:53:19.420Z,15.68
2019-04-27T19:54:54.157Z,10.85
2019-04-27T19:56:28.512Z,10.15
2019-04-27T19:58:03.180Z,10.45
2019-04-27T19:59:39.083Z,14.20
2019-04-27T20:01:15.525Z,15.63
2019-04-27T20:02:50.337Z,10.63
2019-04-27T20:04:26.176Z,10.58
2019-04-27T20:06:00.468Z,9.93
2019-04-27T20:07:34.851Z,8.25
2019-04-27T20:09:23.009Z,9.85
2019-04-27T20:10:57.356Z,11.30
2019-04-27T20:12:33.213Z,8.83
2019-04-27T20:14:07.429Z,9.73
2019-04-27T20:15:42.971Z,11.57
2019-04-27T20:17:17.369Z,7.95
2019-04-27T20:18:51.710Z,9.60
2019-04-27T20:20:26.185Z,11.30
2019-04-27T20:22:00.850Z,14.83
2019-04-27T20:23:35.148Z,16.07
2019-04-27T20:25:11.094Z,15.30
2019-04-27T20:26:45.216Z,16.75
2019-04-27T20:28:20.631Z,16.82
2019-04-27T20:29:55.407Z,10.23
2019-04-27T20:31:30.655Z,9.23
2019-04-27T20:33:05.477Z,12.45
2019-04-27T20:34:41.226Z,10.98
2019-04-27T20:36:15.600Z,10.40
2019-04-27T20:37:51.706Z,10.30
2019-04-27T20:39:25.704Z,8.83
2019-04-27T20:41:01.374Z,12.33
2019-04-27T20:42:35.829Z,8.68
2019-04-27T20:44:12.299Z,11.12
2019-04-27T20:45:46.299Z,12.13
2019-04-27T20:47:20.573Z,11.83
2019-04-27T20:48:55.350Z,8.80
2019-04-27T20:50:30.887Z,10.20
2019-04-27T20:52:13.097Z,11.08
2019-04-27T20:53:54.696Z,7.92